Time;durP1;ratioP1;P1;durP2;ratioP2;P2;SDS_P1;SDS_P2;PMS_P1;PMS_P2;Temp;Humidity;BMP_temperature;BMP_pressure;BME280_temperature;BME280_humidity;BME280_pressure;Samples;Min_cycle;Max_cycle;Signal;HPM_P1;HPM_P2
2021/03/29 00:00:21;;;;;;;1.75;1.50;;;;;;;25.89;25.10;97928.28;5048410;28;20024;-27
2021/03/29 00:02:46;;;;;;;2.78;1.60;;;;;;;25.86;25.13;97925.75;5029378;28;20089;-32
2021/03/29 00:05:13;;;;;;;2.65;1.67;;;;;;;25.89;25.13;97926.47;5055706;28;20708;-26
2021/03/29 00:07:39;;;;;;;3.03;1.30;;;;;;;25.88;25.13;97927.41;5045567;28;20081;-25
2021/03/29 00:10:06;;;;;;;3.22;1.60;;;;;;;25.89;25.14;97933.53;5030182;28;20017;-29
2021/03/29 00:12:31;;;;;;;2.45;1.52;;;;;;;25.89;24.98;97930.91;5051303;28;20032;-29
2021/03/29 00:14:56;;;;;;;4.00;1.58;;;;;;;25.89;25.23;97933.53;5044424;28;20497;-31
2021/03/29 00:17:22;;;;;;;2.58;1.48;;;;;;;25.89;25.11;97920.41;5046613;28;20098;-27
2021/03/29 00:19:47;;;;;;;4.32;1.55;;;;;;;25.88;25.21;97921.28;5049718;28;20029;-30
2021/03/29 00:22:12;;;;;;;2.17;1.35;;;;;;;25.89;25.13;97933.53;5049912;28;20492;-29
2021/03/29 00:24:38;;;;;;;4.25;1.50;;;;;;;25.88;25.20;97929.16;5035338;28;20036;-31
2021/03/29 00:27:04;;;;;;;2.67;1.42;;;;;;;25.89;25.20;97930.91;5032249;28;20032;-28
2021/03/29 00:29:29;;;;;;;4.13;1.40;;;;;;;25.87;25.03;97930.94;5056509;28;20109;-30
2021/03/29 00:31:55;;;;;;;8.05;1.52;;;;;;;25.88;25.23;97934.41;5048664;28;20544;-29
2021/03/29 00:34:20;;;;;;;2.33;1.30;;;;;;;25.83;25.14;97921.47;5033963;28;20665;-29
2021/03/29 00:36:47;;;;;;;2.88;1.48;;;;;;;25.88;25.24;97934.41;5050743;28;20028;-30
2021/03/29 00:39:12;;;;;;;2.17;1.15;;;;;;;25.88;25.09;97923.91;5052312;28;20051;-30
2021/03/29 00:41:37;;;;;;;2.42;1.30;;;;;;;25.88;25.32;97930.03;5033228;28;20909;-28
2021/03/29 00:44:04;;;;;;;5.13;1.42;;;;;;;25.87;25.21;97923.06;5047048;28;20032;-24
2021/03/29 00:46:29;;;;;;;4.00;1.73;;;;;;;25.87;25.15;97927.44;5049886;28;20021;-30
2021/03/29 00:48:55;;;;;;;1.63;1.40;;;;;;;25.87;25.11;97927.44;5050261;28;20032;-29
2021/03/29 00:51:25;;;;;;;4.28;1.42;;;;;;;25.87;25.22;97933.56;5038660;28;20101;-27
2021/03/29 00:53:52;;;;;;;3.53;1.40;;;;;;;25.88;25.24;97929.16;5048601;28;20041;-28
2021/03/29 00:56:17;;;;;;;2.80;1.50;;;;;;;25.87;25.21;97924.81;5046409;28;20032;-31
2021/03/29 00:58:44;;;;;;;1.95;1.17;;;;;;;25.87;25.28;97932.69;5054287;28;20043;-29
2021/03/29 01:01:32;;;;;;;4.95;1.38;;;;;;;25.86;25.26;97931.88;5020132;28;20496;-27
2021/03/29 01:03:59;;;;;;;4.00;1.60;;;;;;;25.87;25.26;97935.34;5048347;28;20040;-28
2021/03/29 01:06:27;;;;;;;5.15;1.50;;;;;;;25.87;25.16;97936.19;5030805;28;20028;-30
2021/03/29 01:08:56;;;;;;;2.53;1.23;;;;;;;25.87;25.21;97932.69;5023507;28;20275;-28
2021/03/29 01:11:23;;;;;;;1.67;1.10;;;;;;;25.86;25.22;97936.25;5046772;28;20120;-29
2021/03/29 01:14:04;;;;;;;2.10;1.35;;;;;;;25.86;25.33;97936.25;5034942;28;20028;-29
2021/03/29 01:16:32;;;;;;;3.25;1.20;;;;;;;25.86;25.08;97941.50;5052096;28;20028;-26
2021/03/29 01:18:58;;;;;;;2.40;1.40;;;;;;;25.85;25.23;97935.38;5057157;28;20566;-27
2021/03/29 01:21:32;;;;;;;3.30;1.33;;;;;;;25.88;25.37;97944.91;5031502;28;20029;-27
2021/03/29 01:24:01;;;;;;;3.53;1.27;;;;;;;25.85;25.29;97945.03;5048682;28;20036;-27
2021/03/29 01:26:43;;;;;;;3.13;1.35;;;;;;;25.85;25.24;97939.78;5034320;28;20028;-30
2021/03/29 01:29:09;;;;;;;2.03;1.42;;;;;;;25.85;25.27;97945.03;5051143;28;20478;-27
2021/03/29 01:31:35;;;;;;;2.20;1.25;;;;;;;25.83;25.37;97938.06;5018500;28;20032;-31
2021/03/29 01:34:01;;;;;;;3.88;1.58;;;;;;;25.85;25.27;97940.63;5022415;28;20450;-30
2021/03/29 01:36:26;;;;;;;5.90;1.50;;;;;;;25.85;25.40;97947.66;5051865;28;20075;-27
2021/03/29 01:38:52;;;;;;;2.40;1.33;;;;;;;25.85;25.31;97940.63;5037233;28;20587;-27
2021/03/29 01:41:18;;;;;;;2.88;1.30;;;;;;;25.85;25.22;97945.03;5029782;28;20586;-27
2021/03/29 01:43:44;;;;;;;2.85;1.10;;;;;;;25.86;25.17;97946.75;5051881;28;20492;-32
2021/03/29 01:46:10;;;;;;;2.65;1.58;;;;;;;25.85;25.29;97947.66;5048552;28;20037;-28
2021/03/29 01:48:35;;;;;;;2.25;1.10;;;;;;;25.85;25.18;97950.28;5050389;28;20039;-31
2021/03/29 01:51:01;;;;;;;2.30;1.35;;;;;;;25.83;25.40;97943.31;5047685;28;20555;-30
2021/03/29 01:53:27;;;;;;;3.38;1.25;;;;;;;25.83;25.30;97943.31;5049026;28;20032;-28
2021/03/29 01:55:53;;;;;;;2.05;1.23;;;;;;;25.83;25.48;97951.19;5046816;28;20028;-31
2021/03/29 01:58:19;;;;;;;4.22;1.48;;;;;;;25.83;25.30;97953.81;5053810;28;20751;-29
2021/03/29 02:00:48;;;;;;;3.03;1.27;;;;;;;25.83;25.30;97953.81;5043180;28;20035;-28
2021/03/29 02:03:14;;;;;;;3.83;1.55;;;;;;;25.83;25.47;97959.06;5048120;28;20012;-28
2021/03/29 02:05:39;;;;;;;3.05;1.27;;;;;;;25.83;25.33;97952.97;5032927;28;20033;-28
2021/03/29 02:08:05;;;;;;;3.33;1.23;;;;;;;25.82;25.23;97957.34;5028476;28;20506;-29
2021/03/29 02:10:32;;;;;;;1.83;1.10;;;;;;;25.82;25.34;97959.13;5044299;28;20041;-27
2021/03/29 02:13:02;;;;;;;2.35;1.23;;;;;;;25.81;25.37;97960.91;5049987;28;20039;-28
2021/03/29 02:15:30;;;;;;;2.40;1.25;;;;;;;25.81;25.23;97955.66;5046234;28;20037;-28
2021/03/29 02:17:57;;;;;;;3.03;1.40;;;;;;;25.80;25.41;97953.94;5045867;28;20106;-30
2021/03/29 02:20:25;;;;;;;2.60;1.10;;;;;;;25.77;25.20;97950.53;5047191;28;20029;-26
2021/03/29 02:22:51;;;;;;;2.60;1.30;;;;;;;25.79;25.54;97949.59;5050096;28;20041;-29
2021/03/29 02:25:21;;;;;;;1.55;1.10;;;;;;;25.81;25.26;97955.66;5034124;28;20024;-27
2021/03/29 02:27:47;;;;;;;1.80;1.25;;;;;;;25.82;25.41;97956.50;5050040;28;20029;-28
2021/03/29 02:30:18;;;;;;;2.80;1.50;;;;;;;25.80;25.40;97948.69;5044775;28;20497;-30
2021/03/29 02:32:44;;;;;;;1.63;1.10;;;;;;;25.80;25.49;97953.94;5042638;28;20036;-28
2021/03/29 02:35:10;;;;;;;3.08;1.33;;;;;;;25.78;25.44;97954.91;5053098;28;20089;-26
2021/03/29 02:37:44;;;;;;;1.33;0.85;;;;;;;25.79;25.31;97949.59;5044512;28;20044;-28
2021/03/29 02:40:10;;;;;;;1.60;0.93;;;;;;;25.79;25.69;97946.09;5052649;28;20036;-25
2021/03/29 02:42:35;;;;;;;1.55;1.00;;;;;;;25.79;25.39;97948.75;5047213;28;20029;-27
2021/03/29 02:45:03;;;;;;;3.22;1.40;;;;;;;25.79;25.38;97946.09;5047602;28;20036;-27
2021/03/29 02:47:28;;;;;;;1.85;1.27;;;;;;;25.79;25.30;97952.22;5048925;28;20029;-32
2021/03/29 02:49:54;;;;;;;3.40;1.25;;;;;;;25.79;25.40;97954.84;5047517;28;20027;-23
2021/03/29 02:52:20;;;;;;;3.60;1.30;;;;;;;25.78;25.53;97952.28;5032676;28;20024;-29
2021/03/29 02:54:45;;;;;;;1.83;0.98;;;;;;;25.78;25.57;97953.13;5046749;28;20351;-27
2021/03/29 02:57:11;;;;;;;1.20;1.05;;;;;;;25.78;25.38;97961.00;5049256;28;20028;-29
2021/03/29 02:59:36;;;;;;;1.80;1.15;;;;;;;25.78;25.39;97965.41;5045433;28;20481;-28
2021/03/29 03:02:02;;;;;;;0.93;0.80;;;;;;;25.78;25.33;97958.38;5047229;28;20044;-28
2021/03/29 03:04:27;;;;;;;2.17;1.20;;;;;;;25.77;25.34;97959.28;5037532;28;20032;-30
2021/03/29 03:06:53;;;;;;;2.35;1.00;;;;;;;25.75;25.62;97961.13;5048553;28;20081;-26
2021/03/29 03:09:19;;;;;;;1.88;1.35;;;;;;;25.77;25.50;97963.66;5036864;28;20528;-28
2021/03/29 03:11:45;;;;;;;2.42;1.20;;;;;;;25.75;25.48;97961.13;5051928;28;20048;-30
2021/03/29 03:14:10;;;;;;;1.55;0.98;;;;;;;25.76;25.72;97965.47;5026402;28;20033;-28
2021/03/29 03:16:36;;;;;;;3.33;1.25;;;;;;;25.75;25.58;97966.38;5043523;28;21346;-32
2021/03/29 03:19:02;;;;;;;1.83;1.00;;;;;;;25.76;25.61;97968.09;5048180;28;20029;-29
2021/03/29 03:21:28;;;;;;;2.10;0.85;;;;;;;25.76;25.34;97968.09;5054548;28;20016;-27
2021/03/29 03:23:54;;;;;;;1.85;1.08;;;;;;;25.76;25.55;97980.34;5044753;28;20048;-30
2021/03/29 03:26:20;;;;;;;3.67;1.00;;;;;;;25.76;25.41;97972.47;5053801;28;20588;-28
2021/03/29 03:28:45;;;;;;;1.48;1.00;;;;;;;25.75;25.61;97970.75;5051978;28;20039;-28
2021/03/29 03:31:11;;;;;;;2.05;1.05;;;;;;;25.75;25.53;97976.88;5035197;28;20062;-27
2021/03/29 03:33:36;;;;;;;1.85;0.80;;;;;;;25.76;25.46;97972.47;5052178;28;20090;-29
2021/03/29 03:36:02;;;;;;;1.50;1.08;;;;;;;25.73;25.43;97978.69;5050077;28;20904;-26
2021/03/29 03:38:33;;;;;;;1.50;1.00;;;;;;;25.75;25.49;97978.63;5035017;28;20095;-28
2021/03/29 03:41:00;;;;;;;1.17;0.95;;;;;;;25.74;25.63;97974.28;5056923;28;20036;-28
2021/03/29 03:43:28;;;;;;;1.80;1.00;;;;;;;25.74;25.65;97976.91;5039502;28;20040;-28
2021/03/29 03:45:59;;;;;;;3.05;1.20;;;;;;;25.74;25.36;97976.91;5050372;28;20681;-31
2021/03/29 03:48:24;;;;;;;3.22;1.20;;;;;;;25.73;25.50;97968.19;5038089;28;20027;-28
2021/03/29 03:50:49;;;;;;;1.60;0.95;;;;;;;25.73;25.46;97978.69;5046865;28;20025;-32
2021/03/29 03:53:15;;;;;;;0.77;0.73;;;;;;;25.73;25.57;97978.69;5052108;28;20036;-28
2021/03/29 03:55:41;;;;;;;2.78;1.27;;;;;;;25.73;25.63;97988.34;5050988;28;20041;-25
2021/03/29 03:58:07;;;;;;;0.93;0.73;;;;;;;25.73;25.66;97981.31;5034674;28;20060;-29
2021/03/29 04:00:32;;;;;;;1.98;1.15;;;;;;;25.73;25.65;97983.09;5032951;28;20032;-27
2021/03/29 04:02:57;;;;;;;1.83;1.20;;;;;;;25.73;25.58;97985.72;5050067;28;20037;-27
2021/03/29 04:05:23;;;;;;;1.08;0.98;;;;;;;25.71;25.60;97985.75;5053109;28;20025;-30
2021/03/29 04:07:50;;;;;;;1.73;0.90;;;;;;;25.70;25.52;97984.91;5066473;28;20036;-28
2021/03/29 04:12:43;;;;;;;1.75;0.93;;;;;;;25.71;25.51;97988.38;5053798;28;20039;-29
2021/03/29 04:15:09;;;;;;;1.95;0.88;;;;;;;25.71;25.60;97985.75;5052205;28;20388;-28
2021/03/29 04:17:34;;;;;;;1.15;0.80;;;;;;;25.71;25.71;97985.75;5052133;28;20039;-28
2021/03/29 04:20:00;;;;;;;1.48;0.85;;;;;;;25.70;25.64;97984.03;5051301;28;20032;-27
2021/03/29 04:22:25;;;;;;;1.05;0.70;;;;;;;25.72;25.67;97991.84;5051355;28;20029;-30
2021/03/29 04:24:51;;;;;;;1.80;0.90;;;;;;;25.71;25.79;97985.75;5049658;28;20024;-25
2021/03/29 04:27:16;;;;;;;1.20;0.88;;;;;;;25.70;25.73;97987.53;5052273;28;20055;-27
2021/03/29 04:29:41;;;;;;;1.05;0.80;;;;;;;25.70;25.63;97989.28;5048679;28;20039;-28
2021/03/29 04:32:10;;;;;;;2.42;1.10;;;;;;;25.69;25.81;97991.06;5047464;28;20029;-29
2021/03/29 04:34:35;;;;;;;1.02;0.70;;;;;;;25.70;25.68;97990.16;5057016;28;20619;-29
2021/03/29 04:37:01;;;;;;;1.45;0.73;;;;;;;25.69;25.76;97992.81;5049244;28;20028;-27
2021/03/29 04:39:26;;;;;;;1.23;0.80;;;;;;;25.69;25.58;97993.69;5050438;28;20028;-31
2021/03/29 04:41:52;;;;;;;2.30;0.90;;;;;;;25.69;25.57;97998.06;5049906;28;20016;-27
2021/03/29 04:44:17;;;;;;;2.05;1.00;;;;;;;25.69;25.71;97998.06;5051832;28;20047;-28
2021/03/29 04:46:43;;;;;;;1.38;0.68;;;;;;;25.68;25.66;97996.34;5050678;28;20052;-30
2021/03/29 04:49:08;;;;;;;1.10;0.70;;;;;;;25.67;25.64;98008.63;5049800;28;20028;-26
2021/03/29 04:51:33;;;;;;;1.13;0.90;;;;;;;25.67;25.80;98000.75;5049392;28;20094;-26
2021/03/29 04:53:59;;;;;;;1.83;0.82;;;;;;;25.67;25.83;98006.00;5052508;28;20462;-27
2021/03/29 04:56:24;;;;;;;3.13;1.02;;;;;;;25.67;25.53;98010.41;5051825;28;20760;-27
2021/03/29 04:58:50;;;;;;;2.72;1.00;;;;;;;25.65;25.78;98012.19;5051820;28;20085;-26
2021/03/29 05:01:15;;;;;;;0.70;0.70;;;;;;;25.66;25.66;98016.56;5045777;28;20086;-29
2021/03/29 05:03:40;;;;;;;1.55;0.80;;;;;;;25.66;25.55;98025.28;5052094;28;20025;-29
2021/03/29 05:06:06;;;;;;;1.83;1.33;;;;;;;25.67;25.67;98020.91;5048672;28;20040;-27
2021/03/29 05:08:31;;;;;;;3.03;1.10;;;;;;;25.65;25.74;98022.69;5050521;28;20025;-28
2021/03/29 05:10:57;;;;;;;1.67;0.98;;;;;;;25.65;25.78;98022.69;5051915;28;20048;-30
2021/03/29 05:13:22;;;;;;;1.83;1.23;;;;;;;25.65;25.69;98020.94;5050165;28;20551;-26
2021/03/29 05:15:48;;;;;;;1.23;0.95;;;;;;;25.64;25.69;98021.88;5050109;28;20020;-30
2021/03/29 05:18:13;;;;;;;1.35;0.98;;;;;;;25.65;25.91;98022.69;5045451;28;20036;-28
2021/03/29 05:20:39;;;;;;;1.00;0.82;;;;;;;25.64;25.75;98021.88;5044927;28;20028;-27
2021/03/29 05:23:04;;;;;;;1.05;0.80;;;;;;;25.64;25.70;98023.63;5045547;28;20282;-29
2021/03/29 05:25:30;;;;;;;0.88;0.60;;;;;;;25.64;25.66;98021.00;5047068;28;20041;-25
2021/03/29 05:27:55;;;;;;;2.70;0.82;;;;;;;25.64;25.84;98026.25;5044123;28;20077;-26
2021/03/29 05:30:21;;;;;;;1.48;0.93;;;;;;;25.64;25.75;98027.13;5050721;28;20032;-30
2021/03/29 05:32:46;;;;;;;1.63;0.80;;;;;;;25.64;25.75;98031.50;5046513;28;20031;-32
2021/03/29 05:35:14;;;;;;;4.78;1.02;;;;;;;25.63;25.63;98024.53;5044743;28;20032;-27
2021/03/29 05:37:40;;;;;;;2.17;1.15;;;;;;;25.63;25.71;98025.38;5043479;28;20089;-26
2021/03/29 05:40:06;;;;;;;4.13;1.00;;;;;;;25.63;25.68;98029.78;5045073;28;20028;-31
2021/03/29 05:42:32;;;;;;;2.10;1.00;;;;;;;25.63;25.80;98029.78;5047232;28;20028;-30
2021/03/29 05:45:10;;;;;;;1.75;1.10;;;;;;;25.61;25.70;98037.72;5045656;28;20526;-28
2021/03/29 05:47:36;;;;;;;2.55;1.10;;;;;;;25.61;25.76;98037.72;5047169;28;20146;-29
2021/03/29 05:50:10;;;;;;;4.90;1.45;;;;;;;25.61;25.79;98042.97;5041808;28;20064;-26
2021/03/29 05:52:36;;;;;;;2.33;1.00;;;;;;;25.62;25.82;98033.31;5025564;28;20029;-29
2021/03/29 05:55:01;;;;;;;2.97;1.40;;;;;;;25.61;25.79;98037.72;5026274;28;20087;-27
2021/03/29 05:57:37;;;;;;;2.28;0.88;;;;;;;25.61;25.93;98034.22;5025260;28;20881;-27
2021/03/29 06:00:33;;;;;;;2.40;1.10;;;;;;;25.61;25.73;98036.84;5028550;28;20782;-28
2021/03/29 06:03:18;;;;;;;2.13;1.20;;;;;;;25.60;25.92;98045.63;5028623;28;20120;-28
2021/03/29 06:05:43;;;;;;;3.97;1.27;;;;;;;25.61;25.76;98042.09;5026878;28;20028;-28
2021/03/29 06:08:08;;;;;;;2.83;1.20;;;;;;;25.60;25.91;98048.25;5024611;28;20056;-27
2021/03/29 06:10:34;;;;;;;3.83;1.23;;;;;;;25.60;25.80;98050.88;5025390;28;20032;-26
2021/03/29 06:12:59;;;;;;;1.60;0.90;;;;;;;25.60;26.04;98057.00;5028095;28;20649;-30
2021/03/29 06:15:27;;;;;;;2.30;1.10;;;;;;;25.60;25.92;98066.63;4991372;28;20433;-25
2021/03/29 06:18:10;;;;;;;3.35;1.40;;;;;;;25.60;25.80;98061.38;5025552;28;20112;-28
2021/03/29 06:21:02;;;;;;;2.55;1.25;;;;;;;25.60;25.86;98071.88;5029210;28;20659;-27
2021/03/29 06:23:28;;;;;;;3.63;1.08;;;;;;;25.59;26.08;98067.53;5027243;28;20029;-31
2021/03/29 06:26:17;;;;;;;4.00;2.00;;;;;;;25.59;26.00;98078.03;5025867;28;20029;-30
2021/03/29 06:28:43;;;;;;;2.40;1.10;;;;;;;25.60;25.94;98082.38;5023986;28;20098;-30
2021/03/29 06:31:25;;;;;;;2.90;1.40;;;;;;;25.60;25.98;98082.38;5023933;28;20484;-26
2021/03/29 06:33:51;;;;;;;3.15;1.35;;;;;;;25.60;26.02;98090.25;5027470;28;20123;-25
2021/03/29 06:36:27;;;;;;;2.13;1.00;;;;;;;25.60;25.92;98092.88;5027363;28;20037;-29
2021/03/29 06:38:55;;;;;;;2.22;1.00;;;;;;;25.62;26.17;98091.06;5025397;28;20540;-26
2021/03/29 06:41:24;;;;;;;5.07;1.20;;;;;;;25.62;26.03;98101.56;5023619;28;20029;-26
2021/03/29 06:43:50;;;;;;;5.15;1.25;;;;;;;25.62;26.03;98096.31;5025440;28;20036;-30
2021/03/29 06:46:22;;;;;;;2.58;1.13;;;;;;;25.63;26.05;98098.03;5007733;28;20037;-24
2021/03/29 06:48:48;;;;;;;4.20;1.83;;;;;;;25.63;25.91;98098.03;5027020;28;20052;-26
2021/03/29 06:51:16;;;;;;;5.40;2.50;;;;;;;25.60;25.43;98096.38;5009040;28;20120;-29
2021/03/29 06:53:51;;;;;;;5.13;2.22;;;;;;;25.59;25.10;98106.91;5026992;28;20082;-26
2021/03/29 06:56:24;;;;;;;8.30;2.28;;;;;;;25.55;24.93;98101.72;5028637;28;20126;-29
2021/03/29 06:58:51;;;;;;;6.13;2.20;;;;;;;25.52;24.78;98104.44;5025417;28;20056;-24
2021/03/29 07:01:36;;;;;;;3.67;2.03;;;;;;;25.49;24.93;98112.41;5027921;28;20025;-26
2021/03/29 07:04:01;;;;;;;7.45;2.00;;;;;;;25.46;24.82;98104.63;5025843;28;20036;-29
2021/03/29 07:06:28;;;;;;;4.72;2.10;;;;;;;25.43;24.67;98112.59;5023453;28;20033;-28
2021/03/29 07:09:02;;;;;;;6.88;2.30;;;;;;;25.41;24.72;98109.16;5025661;28;20037;-31
2021/03/29 07:11:27;;;;;;;6.20;2.58;;;;;;;25.37;24.49;98102.28;5026782;28;20747;-24
2021/03/29 07:13:53;;;;;;;8.15;2.63;;;;;;;25.35;24.37;98104.13;5030518;28;20044;-26
2021/03/29 07:16:18;;;;;;;6.88;2.40;;;;;;;25.31;24.57;98104.22;5027369;28;20103;-30
2021/03/29 07:18:43;;;;;;;6.55;2.97;;;;;;;25.29;24.33;98106.00;5010265;28;20029;-31
2021/03/29 07:21:10;;;;;;;5.47;2.72;;;;;;;25.27;24.48;98107.81;5023218;28;20032;-29
2021/03/29 07:23:36;;;;;;;8.20;2.45;;;;;;;25.26;24.39;98106.13;5024863;28;20044;-27
2021/03/29 07:26:01;;;;;;;11.70;2.70;;;;;;;25.22;24.35;98114.97;5013313;28;20029;-30
2021/03/29 07:28:29;;;;;;;13.45;3.10;;;;;;;25.20;24.12;98115.94;5024845;28;20029;-30
2021/03/29 07:30:59;;;;;;;7.10;2.70;;;;;;;25.15;24.15;98114.31;5025324;28;20626;-26
2021/03/29 07:33:24;;;;;;;8.35;2.60;;;;;;;25.16;24.06;98125.63;5011962;28;20032;-29
2021/03/29 07:35:54;;;;;;;5.32;2.63;;;;;;;25.14;24.08;98115.19;5028476;28;20087;-28
2021/03/29 07:38:26;;;;;;;11.98;3.00;;;;;;;25.14;24.13;98117.81;5026584;28;20037;-25
2021/03/29 07:40:53;;;;;;;6.85;2.42;;;;;;;25.14;23.85;98123.06;5030563;28;20112;-29
2021/03/29 07:43:20;;;;;;;21.42;3.15;;;;;;;25.13;24.33;98121.34;5028910;28;20031;-27
2021/03/29 07:46:05;;;;;;;9.40;2.10;;;;;;;25.13;24.21;98121.34;5021892;28;20581;-29
2021/03/29 07:48:40;;;;;;;5.70;2.33;;;;;;;25.17;24.49;98124.75;5023481;28;20103;-32
2021/03/29 07:51:13;;;;;;;6.65;2.50;;;;;;;25.20;24.72;98122.03;5024646;28;20033;-26
2021/03/29 07:53:45;;;;;;;11.32;2.80;;;;;;;25.22;24.38;98130.72;5021133;28;20033;-31
2021/03/29 07:56:12;;;;;;;5.38;2.92;;;;;;;25.25;24.29;98125.38;5030439;28;20033;-28
2021/03/29 07:58:45;;;;;;;6.15;2.65;;;;;;;25.27;23.97;98133.19;5020710;28;20039;-29
2021/03/29 08:01:12;;;;;;;8.85;2.88;;;;;;;25.28;23.89;98127.91;5021971;28;20142;-26
2021/03/29 08:03:40;;;;;;;5.97;2.88;;;;;;;25.28;23.69;98122.66;5024761;28;20549;-31
2021/03/29 08:06:07;;;;;;;15.57;2.70;;;;;;;25.25;22.93;98130.59;5027024;28;20032;-28
2021/03/29 08:08:38;;;;;;;9.75;2.88;;;;;;;25.17;22.61;98122.13;5028640;28;20105;-27
2021/03/29 08:11:09;;;;;;;;;;;;;;;25.11;21.93;98122.28;5026682;28;20017;-28
2021/03/29 08:13:41;;;;;;;18.23;2.80;;;;;;;24.98;21.40;98122.63;5026373;28;19947;-28
2021/03/29 08:16:17;;;;;;;9.52;2.90;;;;;;;24.90;21.66;98124.66;5029679;28;20037;-26
2021/03/29 08:19:14;;;;;;;7.22;2.20;;;;;;;24.82;21.85;98121.34;5029954;28;20032;-29
2021/03/29 08:21:49;;;;;;;7.65;2.22;;;;;;;24.79;21.90;98123.13;5030648;28;20025;-31
2021/03/29 08:24:32;;;;;;;3.97;1.90;;;;;;;24.80;22.08;98121.38;5026104;28;22203;-29
2021/03/29 08:27:17;;;;;;;6.28;2.10;;;;;;;24.82;22.35;98131.84;5029153;28;20439;-27
2021/03/29 08:29:43;;;;;;;13.75;2.33;;;;;;;24.84;22.58;98127.44;5029015;28;20027;-33
2021/03/29 08:32:15;;;;;;;11.88;2.25;;;;;;;24.88;22.60;98121.19;5033287;28;20027;-29
2021/03/29 08:34:48;;;;;;;;;;;;;;;24.94;22.75;98122.78;5026867;28;20037;-24
2021/03/29 08:37:20;;;;;;;7.72;2.50;;;;;;;24.97;22.80;98123.56;5026516;28;20980;-29
2021/03/29 08:39:47;;;;;;;13.35;2.40;;;;;;;25.02;23.27;98124.28;5026289;28;20039;-26
2021/03/29 08:42:13;;;;;;;14.32;2.30;;;;;;;25.07;23.32;98133.78;5004697;28;20466;-27
2021/03/29 08:44:42;;;;;;;12.02;2.63;;;;;;;25.12;23.19;98134.50;5028235;28;20032;-25
2021/03/29 08:47:12;;;;;;;14.55;2.90;;;;;;;25.16;23.51;98136.13;5025686;28;20033;-27
2021/03/29 08:49:37;;;;;;;14.60;2.35;;;;;;;25.20;23.52;98137.75;5041878;28;20105;-30
2021/03/29 08:52:03;;;;;;;18.30;2.72;;;;;;;25.24;23.38;98142.00;5057960;28;20048;-24
2021/03/29 08:54:28;;;;;;;11.50;2.30;;;;;;;25.27;23.47;98139.31;5058232;28;20048;-27
2021/03/29 08:57:01;;;;;;;16.58;2.30;;;;;;;25.30;23.62;98141.84;5062812;28;20024;-27
2021/03/29 08:59:27;;;;;;;10.02;2.15;;;;;;;25.36;23.56;98142.56;5070779;28;20056;-29
2021/03/29 09:01:53;;;;;;;6.80;2.20;;;;;;;25.37;23.61;98145.16;5058874;28;20073;-25
2021/03/29 09:04:18;;;;;;;9.30;2.30;;;;;;;25.40;23.64;98141.56;5062011;28;20025;-29
2021/03/29 09:06:44;;;;;;;8.82;2.47;;;;;;;25.42;23.79;98142.38;5064403;28;20020;-28
2021/03/29 09:09:16;;;;;;;7.20;2.80;;;;;;;25.45;23.85;98144.91;5063738;28;20020;-26
2021/03/29 09:11:45;;;;;;;7.82;2.38;;;;;;;25.48;23.68;98139.59;5064992;28;20028;-27
2021/03/29 09:14:10;;;;;;;11.70;2.50;;;;;;;25.49;23.65;98143.03;5065216;28;20339;-27
2021/03/29 09:16:37;;;;;;;13.45;2.92;;;;;;;25.50;23.85;98144.75;5069195;28;20097;-26
2021/03/29 09:19:16;;;;;;;9.07;3.00;;;;;;;25.49;23.77;98141.28;5067194;28;20119;-26
2021/03/29 09:21:42;;;;;;;16.27;3.65;;;;;;;25.50;23.77;98143.00;5073468;28;20064;-28
2021/03/29 09:24:18;;;;;;;23.33;3.53;;;;;;;25.50;24.11;98145.63;5068946;28;20047;-28
2021/03/29 09:26:44;;;;;;;9.20;3.53;;;;;;;25.52;23.96;98148.22;5062769;28;20031;-27
2021/03/29 09:29:23;;;;;;;13.45;3.42;;;;;;;25.52;24.29;98148.22;5068879;28;20028;-28
2021/03/29 09:31:48;;;;;;;11.57;3.28;;;;;;;25.52;24.34;98133.31;5063403;28;20055;-28
2021/03/29 09:34:13;;;;;;;19.55;3.47;;;;;;;25.52;24.39;98133.31;5074530;28;20484;-28
2021/03/29 09:36:39;;;;;;;9.48;3.35;;;;;;;25.54;24.45;98141.13;5071187;28;20652;-27
2021/03/29 09:39:12;;;;;;;14.55;3.88;;;;;;;25.54;24.46;98135.88;5072465;28;20043;-26
2021/03/29 09:41:37;;;;;;;10.98;3.85;;;;;;;25.55;24.43;98154.22;5071426;28;20082;-29
2021/03/29 09:44:07;;;;;;;9.90;3.47;;;;;;;25.55;24.68;98148.97;5069872;28;20028;-26
2021/03/29 09:46:33;;;;;;;10.00;3.08;;;;;;;25.56;24.60;98155.97;5070784;28;20032;-25
2021/03/29 09:49:04;;;;;;;14.93;3.40;;;;;;;25.57;24.81;98152.44;5070138;28;20035;-25
2021/03/29 09:51:30;;;;;;;9.23;3.58;;;;;;;25.59;24.80;98154.16;5071595;28;20024;-27
2021/03/29 09:53:55;;;;;;;11.00;3.10;;;;;;;25.61;24.94;98157.59;5070996;28;20037;-28
2021/03/29 09:56:28;;;;;;;13.93;3.00;;;;;;;25.58;24.96;98148.03;5069200;28;20944;-28
2021/03/29 09:58:53;;;;;;;10.90;3.22;;;;;;;25.61;24.88;98153.22;5072401;28;20039;-27
2021/03/29 10:01:20;;;;;;;10.82;3.10;;;;;;;25.62;24.89;98154.06;5070651;28;20032;-30
2021/03/29 10:04:01;;;;;;;9.70;3.50;;;;;;;25.63;25.14;98156.63;5071408;28;20027;-26
2021/03/29 10:06:28;;;;;;;8.60;3.03;;;;;;;25.64;25.19;98158.38;5071911;28;20112;-25
2021/03/29 10:08:58;;;;;;;9.90;3.10;;;;;;;25.66;25.03;98155.72;5071372;28;20031;-27
2021/03/29 10:11:23;;;;;;;7.93;2.72;;;;;;;25.66;25.08;98161.78;5070992;28;20268;-27
2021/03/29 10:13:49;;;;;;;9.50;2.60;;;;;;;25.67;25.20;98158.25;5070787;28;20416;-25
2021/03/29 10:16:24;;;;;;;7.93;2.72;;;;;;;25.68;25.32;98153.88;5071772;28;20028;-26
2021/03/29 10:19:06;;;;;;;6.28;2.78;;;;;;;25.69;25.25;98153.84;5072502;28;20131;-26
2021/03/29 10:21:32;;;;;;;7.95;2.75;;;;;;;25.70;25.55;98147.66;5070695;28;20028;-28
2021/03/29 10:24:13;;;;;;;8.18;2.60;;;;;;;25.70;25.42;98142.41;5070408;28;20032;-30
2021/03/29 10:26:39;;;;;;;9.90;2.67;;;;;;;25.73;25.54;98136.22;5071279;28;20032;-27
2021/03/29 10:29:06;;;;;;;6.30;2.40;;;;;;;25.73;25.46;98146.72;5069406;28;20031;-28
2021/03/29 10:31:36;;;;;;;8.73;2.30;;;;;;;25.74;25.66;98137.09;5069478;28;20028;-26
2021/03/29 10:34:01;;;;;;;10.90;2.80;;;;;;;25.76;25.62;98140.50;5069343;28;20120;-26
2021/03/29 10:36:28;;;;;;;5.75;2.72;;;;;;;25.77;25.56;98136.97;5068893;28;20107;-30
2021/03/29 10:38:54;;;;;;;6.38;2.58;;;;;;;25.77;25.71;98129.94;5072439;28;20031;-27
2021/03/29 10:41:20;;;;;;;6.68;2.30;;;;;;;25.78;25.70;98134.28;5071168;28;20028;-27
2021/03/29 10:43:45;;;;;;;5.38;2.30;;;;;;;25.80;25.74;98129.00;5066031;28;20059;-28
2021/03/29 10:46:11;;;;;;;7.25;2.55;;;;;;;25.80;25.70;98127.25;5067252;28;20120;-27
2021/03/29 10:48:36;;;;;;;18.02;2.90;;;;;;;25.81;25.73;98128.94;5064174;28;20361;-23
2021/03/29 10:51:03;;;;;;;10.70;2.45;;;;;;;25.80;25.84;98126.38;5063543;28;20779;-28
2021/03/29 10:53:28;;;;;;;10.68;2.42;;;;;;;25.87;25.88;98137.53;5064353;28;20155;-26
2021/03/29 10:55:54;;;;;;;6.43;2.60;;;;;;;25.87;25.83;98130.53;5063356;28;20103;-27
2021/03/29 10:58:19;;;;;;;6.72;2.10;;;;;;;25.89;25.68;98133.09;5061716;28;20427;-28
2021/03/29 11:00:45;;;;;;;8.70;2.30;;;;;;;25.90;25.98;98129.56;5065445;28;20028;-23
2021/03/29 11:03:10;;;;;;;7.93;2.70;;;;;;;25.91;25.97;98123.41;5064278;28;20521;-27
2021/03/29 11:05:36;;;;;;;6.15;2.50;;;;;;;25.92;25.90;98119.84;5072421;28;20035;-26
2021/03/29 11:08:01;;;;;;;5.30;2.30;;;;;;;25.93;25.90;98122.44;5072202;28;20089;-29
2021/03/29 11:10:27;;;;;;;7.25;2.63;;;;;;;25.94;26.03;98124.16;5070446;28;20028;-25
2021/03/29 11:12:52;;;;;;;8.98;2.45;;;;;;;25.96;25.79;98121.47;5071156;28;20099;-25
2021/03/29 11:15:18;;;;;;;5.97;2.10;;;;;;;25.95;26.00;98115.38;5070421;28;20476;-29
2021/03/29 11:17:43;;;;;;;4.97;2.20;;;;;;;25.95;25.93;98120.63;5072770;28;20454;-24
2021/03/29 11:20:09;;;;;;;8.70;2.30;;;;;;;26.00;25.95;98117.84;5070057;28;20054;-27
2021/03/29 11:22:34;;;;;;;4.90;1.90;;;;;;;25.99;26.06;98116.13;5066079;28;20077;-27
2021/03/29 11:25:00;;;;;;;4.90;2.22;;;;;;;26.01;26.07;98114.31;5070740;28;20024;-27
2021/03/29 11:27:25;;;;;;;6.03;2.00;;;;;;;26.02;26.11;98110.78;5069257;28;20110;-27
2021/03/29 11:29:51;;;;;;;5.28;1.85;;;;;;;26.01;26.11;98102.94;5064269;28;20476;-28
2021/03/29 11:32:17;;;;;;;3.80;1.88;;;;;;;26.01;26.19;98106.41;5066938;28;20017;-28
2021/03/29 11:34:42;;;;;;;5.80;1.98;;;;;;;26.03;25.89;98104.63;5070211;28;20027;-29
2021/03/29 11:37:08;;;;;;;6.55;1.92;;;;;;;26.04;26.02;98101.06;5069165;28;20028;-29